createdAt,value
2023-05-02T00:04:38.006Z,9.80
2023-05-02T00:09:41.830Z,9.80
2023-05-02T00:14:58.314Z,9.70
2023-05-02T00:20:01.628Z,9.70
2023-05-02T00:25:06.427Z,9.70
2023-05-02T00:30:09.825Z,9.70
2023-05-02T00:35:17.519Z,9.70
2023-05-02T00:40:25.144Z,9.60
2023-05-02T00:45:29.506Z,9.60
2023-05-02T00:50:41.301Z,9.40
2023-05-02T00:55:51.702Z,9.30
2023-05-02T01:01:17.556Z,9.20
2023-05-02T01:06:42.387Z,9.10
2023-05-02T01:11:51.307Z,8.90
2023-05-02T01:16:56.818Z,8.90
2023-05-02T01:22:03.682Z,8.70
2023-05-02T01:27:46.838Z,8.60
2023-05-02T01:32:57.908Z,8.70
2023-05-02T01:38:02.825Z,8.70
2023-05-02T01:43:14.535Z,8.80
2023-05-02T01:48:22.052Z,8.80
2023-05-02T01:53:40.483Z,8.80
2023-05-02T01:58:47.644Z,8.90
2023-05-02T02:04:19.160Z,8.90
2023-05-02T02:09:22.720Z,8.90
2023-05-02T02:14:35.233Z,9.00
2023-05-02T02:19:42.425Z,9.00
2023-05-02T02:24:51.834Z,9.00
2023-05-02T02:30:09.852Z,9.00
2023-05-02T02:35:18.992Z,9.10
2023-05-02T02:41:01.516Z,9.20
2023-05-02T02:46:33.285Z,9.40
2023-05-02T02:52:16.592Z,9.50
2023-05-02T02:57:44.306Z,9.70
2023-05-02T03:02:48.350Z,9.80
2023-05-02T03:07:58.331Z,9.80
2023-05-02T03:13:03.198Z,9.80
2023-05-02T03:23:15.578Z,10.70
2023-05-02T03:33:25.990Z,9.90
2023-05-02T03:38:30.634Z,9.80
2023-05-02T03:43:40.405Z,9.80
2023-05-02T03:48:46.400Z,10.00
2023-05-02T03:54:03.545Z,10.10
2023-05-02T03:59:10.411Z,10.10
2023-05-02T04:04:19.752Z,10.20
2023-05-02T04:09:27.268Z,10.30
2023-05-02T04:14:41.811Z,10.50
2023-05-02T04:19:47.524Z,10.60
2023-05-02T04:24:54.656Z,10.70
2023-05-02T04:30:07.603Z,10.80
2023-05-02T04:35:17.514Z,10.80
2023-05-02T04:40:34.116Z,11.00
2023-05-02T04:45:41.948Z,11.00
2023-05-02T04:50:54.398Z,11.20
2023-05-02T04:55:59.857Z,11.40
2023-05-02T05:01:07.455Z,11.60
2023-05-02T05:06:17.999Z,11.90
2023-05-02T05:11:23.542Z,12.30
2023-05-02T05:16:27.982Z,12.90
2023-05-02T05:21:35.085Z,13.30
2023-05-02T05:26:38.976Z,14.90
2023-05-02T05:31:43.221Z,15.70
2023-05-02T05:36:51.057Z,16.40
2023-05-02T05:41:57.661Z,16.00
2023-05-02T05:47:00.906Z,15.70
2023-05-02T05:52:04.481Z,16.00
2023-05-02T05:57:08.554Z,16.00
2023-05-02T06:02:12.212Z,16.40
2023-05-02T06:07:17.064Z,16.60
2023-05-02T06:12:21.631Z,16.80
2023-05-02T06:17:25.275Z,16.50
2023-05-02T06:22:32.198Z,16.90
2023-05-02T06:27:47.815Z,17.50
2023-05-02T06:32:51.052Z,17.20
2023-05-02T06:37:54.924Z,17.50
2023-05-02T06:42:57.870Z,17.60
2023-05-02T06:48:00.668Z,17.90
2023-05-02T06:53:05.569Z,18.50
2023-05-02T06:58:08.458Z,19.00
2023-05-02T07:03:11.570Z,18.90
2023-05-02T07:08:14.746Z,18.60
2023-05-02T07:13:18.472Z,18.50
2023-05-02T07:18:21.586Z,18.90
2023-05-02T07:23:25.676Z,18.90
2023-05-02T07:28:28.489Z,18.10
2023-05-02T07:33:31.493Z,17.90
2023-05-02T07:38:34.289Z,17.20
2023-05-02T07:43:37.453Z,17.00
2023-05-02T07:48:42.967Z,16.80
2023-05-02T07:53:46.319Z,16.70
2023-05-02T07:58:51.678Z,17.30
2023-05-02T08:03:54.821Z,18.00
2023-05-02T08:08:57.897Z,18.00
2023-05-02T08:14:03.744Z,17.70
2023-05-02T08:19:06.849Z,17.50
2023-05-02T08:24:09.504Z,16.90
2023-05-02T08:29:12.680Z,16.50
2023-05-02T08:34:15.510Z,16.70
2023-05-02T08:39:23.206Z,17.50
2023-05-02T08:44:27.421Z,16.80
2023-05-02T08:49:35.622Z,17.90
2023-05-02T08:54:40.976Z,19.10
2023-05-02T08:59:51.161Z,18.00
2023-05-02T09:05:05.139Z,18.20
2023-05-02T09:10:11.666Z,18.50
2023-05-02T09:15:33.344Z,18.90
2023-05-02T09:20:41.183Z,18.50
2023-05-02T09:25:45.026Z,19.10
2023-05-02T09:30:48.650Z,19.10
2023-05-02T09:35:56.181Z,19.00
2023-05-02T09:41:00.463Z,20.90
2023-05-02T09:46:05.907Z,19.70
2023-05-02T09:51:22.351Z,19.80
2023-05-02T09:56:26.879Z,19.20
2023-05-02T10:01:30.515Z,19.30
2023-05-02T10:06:33.701Z,19.90
2023-05-02T10:11:40.056Z,19.80
2023-05-02T10:17:13.372Z,20.20
2023-05-02T10:22:20.324Z,20.40
2023-05-02T10:27:24.411Z,20.20
2023-05-02T10:32:32.859Z,20.20
2023-05-02T10:37:39.113Z,20.00
2023-05-02T10:42:45.942Z,20.30
2023-05-02T10:47:49.848Z,20.50
2023-05-02T10:52:53.751Z,20.50
2023-05-02T10:58:02.577Z,19.60
2023-05-02T11:03:06.943Z,19.70
2023-05-02T11:08:16.846Z,20.00
2023-05-02T11:13:49.347Z,20.60
2023-05-02T11:18:59.645Z,20.20
2023-05-02T11:24:44.921Z,20.90
2023-05-02T11:29:53.597Z,21.10
2023-05-02T11:34:59.428Z,20.90
2023-05-02T11:40:15.805Z,20.20
2023-05-02T11:45:19.080Z,20.10
2023-05-02T11:50:23.020Z,20.40
2023-05-02T11:55:25.737Z,20.60
2023-05-02T12:00:29.581Z,20.50
2023-05-02T12:05:32.994Z,20.80
2023-05-02T12:10:38.149Z,21.10
2023-05-02T12:15:41.269Z,20.30
2023-05-02T12:20:45.494Z,20.30
2023-05-02T12:25:49.501Z,20.70
2023-05-02T12:30:53.468Z,20.10
2023-05-02T12:36:07.142Z,20.40
2023-05-02T12:41:11.764Z,20.60
2023-05-02T12:46:15.982Z,20.40
2023-05-02T12:51:23.931Z,19.80
2023-05-02T12:56:32.894Z,19.50
2023-05-02T13:01:36.437Z,19.30
2023-05-02T13:06:41.357Z,19.30
2023-05-02T13:11:48.981Z,19.40
2023-05-02T13:16:59.477Z,19.40
2023-05-02T13:22:04.826Z,19.90
2023-05-02T13:27:24.906Z,20.10
2023-05-02T13:32:31.288Z,20.40
2023-05-02T13:37:34.335Z,20.50
2023-05-02T13:42:39.872Z,20.60
2023-05-02T13:52:48.352Z,21.10
2023-05-02T13:57:51.813Z,20.90
2023-05-02T14:02:55.301Z,20.40
2023-05-02T14:08:01.627Z,20.50
2023-05-02T14:13:06.107Z,20.70
2023-05-02T14:18:08.777Z,20.30
2023-05-02T14:23:15.017Z,20.60
2023-05-02T14:28:27.176Z,20.50
2023-05-02T14:33:33.187Z,20.80
2023-05-02T14:38:40.268Z,21.00
2023-05-02T14:43:43.317Z,20.80
2023-05-02T14:48:47.525Z,20.70
2023-05-02T14:53:51.888Z,20.80
2023-05-02T14:58:55.243Z,21.00
2023-05-02T15:04:06.488Z,21.10
2023-05-02T15:09:12.210Z,20.90
2023-05-02T15:14:16.199Z,20.50
2023-05-02T15:19:19.112Z,20.70
2023-05-02T15:24:26.986Z,20.50
2023-05-02T15:29:31.090Z,20.20
2023-05-02T15:34:34.091Z,19.80
2023-05-02T15:39:48.762Z,19.40
2023-05-02T15:45:09.614Z,18.80
2023-05-02T15:50:12.585Z,18.40
2023-05-02T15:55:26.348Z,18.10
2023-05-02T16:00:53.592Z,17.00
2023-05-02T16:06:10.161Z,16.30
2023-05-02T16:11:58.717Z,15.80
2023-05-02T16:17:16.267Z,15.40
2023-05-02T16:22:41.458Z,14.20
2023-05-02T16:28:22.387Z,14.20
2023-05-02T16:33:50.845Z,14.10
2023-05-02T16:43:57.724Z,14.00
2023-05-02T16:54:03.406Z,13.70
2023-05-02T16:59:06.275Z,13.70
2023-05-02T17:04:29.668Z,13.60
2023-05-02T17:10:03.048Z,13.60
2023-05-02T17:15:27.920Z,13.60
2023-05-02T17:20:56.932Z,13.50
2023-05-02T17:26:07.027Z,13.40
2023-05-02T17:31:24.460Z,13.30
2023-05-02T17:36:47.356Z,13.40
2023-05-02T17:42:30.768Z,13.60
2023-05-02T17:47:47.970Z,13.50
2023-05-02T17:53:11.019Z,13.40
2023-05-02T17:58:39.321Z,13.30
2023-05-02T18:04:17.179Z,13.00
2023-05-02T18:09:44.622Z,13.10
2023-05-02T18:15:02.289Z,13.10
2023-05-02T18:25:50.800Z,12.90
2023-05-02T18:31:06.976Z,12.80
2023-05-02T18:36:35.242Z,12.90
2023-05-02T18:42:17.758Z,12.80
2023-05-02T18:47:37.449Z,12.90
2023-05-02T18:52:57.521Z,13.00
2023-05-02T18:58:43.818Z,13.10
2023-05-02T19:03:57.555Z,13.30
2023-05-02T19:09:09.594Z,13.20
2023-05-02T19:14:15.623Z,13.30
2023-05-02T19:19:31.501Z,13.30
2023-05-02T19:24:43.847Z,13.20
2023-05-02T19:29:49.596Z,13.20
2023-05-02T19:34:54.867Z,13.10
2023-05-02T19:39:58.633Z,13.10
2023-05-02T19:45:02.008Z,13.00
2023-05-02T19:50:07.245Z,12.90
2023-05-02T19:55:18.297Z,12.80
2023-05-02T20:00:21.348Z,12.90
2023-05-02T20:05:26.374Z,12.80
2023-05-02T20:10:31.480Z,12.80
2023-05-02T20:15:34.244Z,12.80
2023-05-02T20:20:37.211Z,12.80
2023-05-02T20:25:41.224Z,12.70
2023-05-02T20:30:45.192Z,12.60
2023-05-02T20:35:54.683Z,12.60
2023-05-02T20:40:57.652Z,12.50
2023-05-02T20:46:09.617Z,12.40
2023-05-02T20:56:21.146Z,12.30
2023-05-02T21:01:23.634Z,12.30
2023-05-02T21:06:26.404Z,12.20
2023-05-02T21:11:32.361Z,12.10
2023-05-02T21:16:35.565Z,12.00
2023-05-02T21:26:43.109Z,12.00
2023-05-02T21:31:55.495Z,11.90
2023-05-02T21:36:58.780Z,11.90
2023-05-02T21:42:01.649Z,11.90
2023-05-02T21:47:04.461Z,11.90
2023-05-02T21:57:10.443Z,11.80
2023-05-02T22:02:15.391Z,11.80
2023-05-02T22:07:18.787Z,11.80
2023-05-02T22:12:23.769Z,11.60
2023-05-02T22:17:26.332Z,11.60
2023-05-02T22:22:29.333Z,11.50
2023-05-02T22:27:44.269Z,11.50
2023-05-02T22:32:47.311Z,11.40
2023-05-02T22:37:50.245Z,11.40
2023-05-02T22:42:52.983Z,11.30
2023-05-02T22:47:56.143Z,11.30
2023-05-02T22:53:06.631Z,11.20
2023-05-02T22:58:14.521Z,11.10
2023-05-02T23:03:17.683Z,10.90
2023-05-02T23:08:21.012Z,10.80
2023-05-02T23:13:23.989Z,10.70
2023-05-02T23:18:28.186Z,10.70
2023-05-02T23:23:31.875Z,10.40
2023-05-02T23:28:35.311Z,10.50
2023-05-02T23:33:38.162Z,10.40
2023-05-02T23:38:41.579Z,10.30
2023-05-02T23:43:44.651Z,10.30
2023-05-02T23:48:47.327Z,10.40
2023-05-02T23:54:01.554Z,10.40
2023-05-02T23:59:06.976Z,10.40
